Latest Weather Observations for Cobar

IDN60801

Issued at 5:32 pm EST Saturday 1 August 2015 (issued every 30 minutes, with the page automatically refreshed every 10 minutes)

About weather observations | Map of weather stations | Latest weather observations for NSW | Other Formats
Station Details ID: 048027 Name: COBAR MO Lat: -31.48 Lon: 145.83 Height: 260.0 m
Data from the previous 72 hours. | See also: Recent months at Cobar
Date/Time
EST
Temp
°C
App
Temp
°C
Dew
Point
Rel
Hum
%
Delta-T
°C
Wind Press
QNH
hPa
Press
MSL
hPa
Rain
since 9 am
mm
Dir
 
Spd
km/h
Gust
km/h
Spd
kts
Gust
kts
01/05:30pm 20.9 17.8 3.8 32 8.3 N 9 11 5 6 1016.4 1016.4 0.0
01/05:00pm 21.7 17.7 3.0 29 9.0 NW 13 20 7 11 1016.5 1016.5 0.0
01/04:30pm 22.8 18.6 1.6 24 10.0 NW 13 20 7 11 1016.5 1016.5 0.0
01/04:00pm 22.6 17.5 0.9 24 10.1 NNW 17 24 9 13 1016.5 1016.5 0.0
01/03:30pm 22.2 16.5 0.8 24 9.9 NNW 20 26 11 14 1016.7 1016.7 0.0
01/03:00pm 23.2 18.3 2.0 25 10.1 NW 17 24 9 13 1016.8 1016.8 0.0
01/02:30pm 22.0 16.2 -0.4 22 10.1 NNW 20 26 11 14 1017.1 1017.1 0.0
01/02:00pm 21.5 15.9 -0.2 23 9.8 NNW 19 26 10 14 1017.3 1017.3 0.0
01/01:30pm 21.6 16.7 -0.8 22 10.0 NNW 15 26 8 14 1017.6 1017.6 0.0
01/01:00pm 21.8 16.3 0.4 24 9.8 N 19 26 10 14 1017.7 1017.7 0.0
01/12:30pm 20.7 15.0 -0.7 24 9.5 NNW 19 30 10 16 1018.3 1018.3 0.0
01/12:00pm 21.4 15.5 -0.5 23 9.8 NNW 20 30 11 16 1018.9 1019.0 0.0
01/11:30am 20.5 14.9 0.0 25 9.2 N 19 26 10 14 1019.2 1019.3 0.0
01/11:00am 20.8 14.5 -1.3 22 9.7 NNW 22 30 12 16 1019.5 1019.6 0.0
01/10:30am 18.5 12.7 -1.7 25 8.6 N 19 26 10 14 1019.7 1019.8 0.0
01/10:00am 17.2 12.5 1.1 33 7.2 N 15 24 8 13 1019.6 1019.7 0.0
01/09:30am 15.2 10.3 1.7 40 6.0 N 17 20 9 11 1019.7 1020.0 0.0
01/09:00am 12.5 8.3 1.7 47 4.7 N 13 19 7 10 1019.6 1019.9 0.0
01/08:30am 11.6 6.5 1.0 48 4.5 N 17 22 9 12 1019.5 1019.8 0.0
01/08:00am 10.8 6.2 1.4 52 4.0 N 15 19 8 10 1019.1 1019.3 0.0
01/07:30am 10.2 5.2 1.1 53 3.8 N 17 20 9 11 1019.0 1019.2 0.0
01/07:00am 9.2 4.6 1.3 58 3.3 N 15 19 8 10 1019.0 1019.2 0.0
01/06:30am 8.6 4.4 1.7 62 2.9 N 13 17 7 9 1018.8 1019.0 0.0
01/06:00am 8.7 4.0 1.2 59 3.1 N 15 17 8 9 1018.6 1018.8 0.0
01/05:30am 8.6 4.4 1.4 60 3.0 N 13 15 7 8 1018.6 1018.8 0.0
01/05:00am 9.2 4.2 1.3 58 3.3 NNE 17 20 9 11 1018.1 1018.3 0.0
01/04:30am 9.8 5.1 1.2 55 3.6 NNE 15 19 8 10 1018.2 1018.4 0.0
01/04:00am 10.1 5.4 1.0 53 3.8 NNE 15 19 8 10 1018.3 1018.5 0.0
01/03:30am 9.2 4.6 1.6 59 3.2 N 15 17 8 9 1018.9 1019.1 0.0
01/03:00am 9.5 5.3 1.4 57 3.4 N 13 17 7 9 1019.0 1019.2 0.0
01/02:30am 9.8 5.1 1.2 55 3.6 NNE 15 17 8 9 1019.3 1019.6 0.0
01/02:00am 9.9 5.3 1.6 56 3.5 N 15 17 8 9 1019.6 1019.9 0.0
01/01:30am 9.8 5.6 1.8 57 3.4 N 13 17 7 9 1019.9 1020.2 0.0
01/01:00am 10.2 5.6 1.7 55 3.6 NNE 15 20 8 11 1019.8 1020.1 0.0
01/12:30am 9.1 5.1 2.8 64 2.7 NNE 13 15 7 8 1020.4 1020.6 0.0
01/12:00am 9.8 5.8 2.6 61 3.1 N 13 17 7 9 1020.5 1020.7 0.0
 
Date/Time
EST
Temp
°C
App
Temp
°C
Dew
Point
Rel
Hum
%
Delta-T
°C
Wind Press
QNH
hPa
Press
MSL
hPa
Rain
since 9 am
mm
Dir
 
Spd
km/h
Gust
km/h
Spd
kts
Gust
kts
31/11:30pm 9.7 5.6 2.5 61 3.1 N 13 15 7 8 1020.6 1020.8 0.0
31/11:00pm 10.1 6.4 2.4 59 3.3 N 11 13 6 7 1021.0 1021.2 0.0
31/10:30pm 10.7 7.1 2.9 58 3.4 N 11 13 6 7 1021.1 1021.3 0.0
31/10:00pm 10.3 6.3 3.0 60 3.2 N 13 15 7 8 1021.1 1021.3 0.0
31/09:30pm 11.4 7.8 3.0 56 3.7 N 11 13 6 7 1021.4 1021.6 0.0
31/09:00pm 12.3 8.3 3.1 53 4.1 N 13 15 7 8 1021.4 1021.6 0.0
31/08:30pm 12.5 8.5 2.8 51 4.3 NNE 13 13 7 7 1021.0 1021.2 0.0
31/08:00pm 12.7 9.2 3.4 53 4.2 NNE 11 13 6 7 1020.9 1021.1 0.0
31/07:30pm 12.9 9.8 3.7 53 4.2 NNE 9 11 5 6 1020.8 1021.0 0.0
31/07:00pm 13.6 10.5 3.5 50 4.6 N 9 11 5 6 1020.5 1020.7 0.0
31/06:30pm 14.5 11.8 3.9 49 4.9 NNE 7 9 4 5 1020.2 1020.5 0.0
31/06:00pm 14.7 13.4 4.2 49 4.9 CALM 0 0 0 0 1020.1 1020.4 0.0
31/05:30pm 16.9 14.6 4.6 44 5.9 WNW 6 7 3 4 1019.9 1020.2 0.0
31/05:00pm 17.4 14.5 4.7 43 6.1 WNW 9 11 5 6 1019.8 1020.1 0.0
31/04:30pm 18.4 15.4 3.9 38 6.9 NW 9 17 5 9 1020.0 1020.3 0.0
31/04:00pm 18.9 16.6 5.0 40 6.8 WNW 6 11 3 6 1020.0 1020.3 0.0
31/03:30pm 18.9 16.5 5.3 41 6.7 WNW 7 11 4 6 1020.0 1020.3 0.0
31/03:00pm 18.4 15.5 4.5 40 6.7 WSW 9 17 5 9 1020.1 1020.4 0.0
31/02:30pm 18.8 15.4 4.0 37 7.1 WSW 11 17 6 9 1020.4 1020.6 0.0
31/02:00pm 18.5 16.0 4.7 40 6.7 NW 7 11 4 6 1020.6 1020.8 0.0
31/01:30pm 17.5 15.2 4.9 43 6.1 SSE 6 11 3 6 1021.1 1021.3 0.0
31/01:00pm 17.2 14.6 4.4 42 6.1 SSE 7 15 4 8 1021.6 1021.8 0.0
31/12:30pm 16.7 14.2 4.5 44 5.8 SSW 7 13 4 7 1022.2 1022.4 0.0
31/12:00pm 16.2 13.7 3.5 42 5.9 SSW 6 9 3 5 1022.6 1022.9 0.0
31/11:30am 15.6 13.0 3.2 43 5.7 ESE 6 9 3 5 1023.0 1023.3 0.0
31/11:00am 15.2 12.4 3.2 44 5.5 ESE 7 13 4 7 1023.1 1023.4 0.0
31/10:30am 14.1 11.4 2.7 46 5.1 S 6 9 3 5 1023.2 1023.5 0.0
31/10:00am 13.0 9.2 1.7 46 4.9 SSW 11 15 6 8 1023.1 1023.4 0.0
31/09:30am 11.9 7.6 0.7 46 4.7 SSW 13 17 7 9 1022.9 1023.2 0.0
31/09:00am 11.6 7.6 0.6 47 4.6 SW 11 17 6 9 1022.8 1023.1 0.0
31/08:30am 10.4 6.9 1.1 52 3.9 WSW 9 13 5 7 1022.6 1022.9 0.0
31/08:00am 9.4 5.7 0.0 52 3.8 WNW 9 11 5 6 1022.4 1022.6 0.0
31/07:30am 8.2 4.5 -0.1 56 3.3 WNW 9 11 5 6 1022.0 1022.2 0.0
31/07:00am 7.8 4.1 -0.3 56 3.2 NW 9 11 5 6 1021.9 1022.1 0.0
31/06:30am 7.5 3.8 -0.1 58 3.0 NW 9 11 5 6 1021.5 1021.7 0.0
31/06:00am 7.5 3.8 -0.1 58 3.0 NW 9 11 5 6 1021.1 1021.3 0.0
31/05:30am 7.7 3.6 -0.1 58 3.1 NW 11 11 6 6 1020.9 1021.1 0.0
31/05:00am 7.7 4.1 0.5 60 2.9 NNW 9 11 5 6 1020.5 1020.7 0.0
31/04:30am 8.4 4.4 0.2 56 3.3 NW 11 13 6 7 1020.7 1020.9 0.0
31/04:00am 8.5 4.9 0.9 59 3.1 NNW 9 11 5 6 1020.8 1021.0 0.0
31/03:30am 8.6 5.1 1.1 59 3.1 NW 9 9 5 5 1021.0 1021.2 0.0
31/03:00am 9.3 5.7 0.8 55 3.5 NNW 9 9 5 5 1021.3 1021.5 0.0
31/02:30am 9.0 5.5 1.0 57 3.3 NNW 9 11 5 6 1021.4 1021.6 0.0
31/02:00am 8.5 4.5 0.6 57 3.2 NW 11 11 6 6 1021.6 1021.8 0.0
31/01:30am 8.6 5.0 0.8 58 3.2 NW 9 11 5 6 1021.8 1022.0 0.0
31/01:00am 8.7 5.1 0.9 58 3.2 NW 9 11 5 6 1021.9 1022.1 0.0
31/12:30am 8.5 4.9 0.6 57 3.2 NW 9 11 5 6 1021.9 1022.1 0.0
31/12:00am 8.8 5.2 0.4 55 3.4 NNW 9 11 5 6 1021.9 1022.1 0.0
 
Date/Time
EST
Temp
°C
App
Temp
°C
Dew
Point
Rel
Hum
%
Delta-T
°C
Wind Press
QNH
hPa
Press
MSL
hPa
Rain
since 9 am
mm
Dir
 
Spd
km/h
Gust
km/h
Spd
kts
Gust
kts
30/11:30pm 9.1 5.4 0.2 53 3.6 N 9 11 5 6 1021.7 1021.9 0.0
30/11:00pm 9.1 5.1 0.5 55 3.5 N 11 13 6 7 1021.8 1022.0 0.0
30/10:30pm 9.4 5.8 0.9 55 3.5 NNW 9 11 5 6 1022.3 1022.5 0.0
30/10:00pm 10.0 6.4 0.8 53 3.8 N 9 11 5 6 1022.3 1022.5 0.0
30/09:30pm 10.0 6.5 1.4 55 3.6 NNW 9 11 5 6 1022.4 1022.6 0.0
30/09:00pm 10.3 6.4 0.9 52 3.9 NW 11 13 6 7 1022.3 1022.5 0.0
30/08:30pm 10.0 5.7 1.1 54 3.7 NNW 13 17 7 9 1022.0 1022.2 0.0
30/08:00pm 10.9 6.5 0.6 49 4.3 N 13 17 7 9 1022.0 1022.2 0.0
30/07:30pm 11.0 7.4 0.7 49 4.3 NNW 9 11 5 6 1022.0 1022.2 0.0
30/07:00pm 11.2 7.2 0.4 47 4.5 N 11 13 6 7 1021.9 1022.1 0.0
30/06:32pm 11.5 7.8 0.2 45 4.7 NNW 9 11 5 6 1022.0 1022.2 0.0
30/06:30pm 11.6 8.3 0.3 46 4.7 NNW 7 9 4 5 1022.1 1022.3 0.0
30/06:14pm 12.3 9.2 1.6 48 4.6 NW 7 9 4 5 1022.2 1022.4 0.0
30/06:00pm 12.7 9.2 1.0 45 5.0 N 9 11 5 6 1022.2 1022.4 0.0
30/05:30pm 13.6 10.1 1.1 42 5.4 NW 9 11 5 6 1022.2 1022.4 0.0
30/05:00pm 14.5 9.6 -0.8 35 6.4 NNW 15 20 8 11 1022.0 1022.2 0.0
30/04:30pm 15.6 10.6 -1.1 32 7.0 NNW 15 20 8 11 1022.0 1022.2 0.0
30/04:00pm 15.6 11.1 -0.4 33 6.8 NNW 13 20 7 11 1022.0 1022.2 0.0
30/03:30pm 15.8 10.9 -0.4 33 6.9 NNW 15 22 8 12 1022.1 1022.3 0.0
30/03:00pm 15.9 11.1 0.5 35 6.7 NNW 15 20 8 11 1022.5 1022.8 0.0
30/02:30pm 15.8 11.2 1.3 37 6.4 N 15 20 8 11 1023.0 1023.3 0.0
30/02:00pm 15.8 10.7 0.7 36 6.6 N 17 24 9 13 1023.2 1023.5 0.0
30/01:30pm 15.8 10.7 0.7 36 6.6 NNW 17 24 9 13 1024.0 1024.3 0.0
30/01:00pm 15.4 11.1 1.3 38 6.2 WNW 13 19 7 10 1024.7 1024.9 0.0
30/12:30pm 14.7 10.0 0.8 38 6.0 NNW 15 24 8 13 1024.9 1025.1 0.0
30/12:00pm 14.2 8.8 1.0 40 5.7 NNW 19 24 10 13 1025.3 1025.5 0.0
30/11:30am 13.8 8.5 1.7 44 5.3 N 19 26 10 14 1025.9 1026.2 0.0
30/11:00am 13.3 8.0 1.9 46 5.0 N 19 28 10 15 1026.3 1026.6 0.0
30/10:30am 12.2 6.6 1.5 48 4.6 N 20 30 11 16 1026.8 1027.1 0.0
30/10:00am 11.8 7.5 3.0 55 3.9 N 15 20 8 11 1026.3 1026.6 0.0
30/09:30am 10.6 6.8 3.9 63 3.0 N 13 17 7 9 1026.7 1027.0 0.0
30/09:00am 8.7 4.8 3.4 69 2.3 N 13 19 7 10 1026.7 1027.0 0.0
30/08:30am 7.2 3.6 2.9 74 1.8 NNE 11 13 6 7 1026.5 1026.8 0.0
30/08:00am 5.0 1.2 2.0 81 1.2 NNE 11 13 6 7 1026.6 1026.9 0.0
30/07:30am 3.5 -0.3 1.5 87 0.8 NNE 11 13 6 7 1026.4 1026.7 0.0
30/07:00am 3.1 -1.2 1.0 86 0.8 NNE 13 15 7 8 1026.3 1026.6 0.0
30/06:30am 3.6 0.1 1.3 85 0.9 NNE 9 11 5 6 1026.2 1026.5 0.0
30/06:00am 3.5 -0.3 1.5 87 0.8 NNE 11 13 6 7 1026.0 1026.3 0.0
30/05:30am 3.8 -0.1 1.2 83 1.0 NNE 11 15 6 8 1025.7 1026.0 0.0
30/05:00am 3.7 -0.2 1.4 85 0.9 NNE 11 13 6 7 1025.9 1026.2 0.0
30/04:30am 4.6 0.8 1.6 81 1.2 NNE 11 13 6 7 1026.3 1026.6 0.0
30/04:00am 4.4 0.5 1.4 81 1.2 NNE 11 13 6 7 1026.5 1026.8 0.0
30/03:30am 4.6 0.3 1.3 79 1.3 NE 13 13 7 7 1026.6 1026.9 0.0
30/03:00am 4.8 1.4 1.8 81 1.2 NNE 9 11 5 6 1026.8 1027.1 0.0
30/02:30am 5.2 1.3 1.4 76 1.5 NNE 11 13 6 7 1027.1 1027.4 0.0
30/02:00am 5.6 2.2 1.6 75 1.6 NNE 9 11 5 6 1027.6 1027.9 0.0
30/01:30am 4.8 1.4 1.8 81 1.2 ENE 9 9 5 5 1027.8 1028.1 0.0
30/01:00am 6.3 2.9 1.9 73 1.8 NNE 9 11 5 6 1028.1 1028.4 0.0
30/12:30am 6.4 2.6 2.0 73 1.8 NE 11 13 6 7 1028.0 1028.3 0.0
30/12:00am 6.7 2.5 1.8 71 2.0 NNE 13 15 7 8 1028.4 1028.6 0.0
 
Date/Time
EST
Temp
°C
App
Temp
°C
Dew
Point
Rel
Hum
%
Delta-T
°C
Wind Press
QNH
hPa
Press
MSL
hPa
Rain
since 9 am
mm
Dir
 
Spd
km/h
Gust
km/h
Spd
kts
Gust
kts
29/11:30pm 6.5 2.0 2.4 75 1.7 NE 15 17 8 9 1028.4 1028.6 0.0
29/11:00pm 6.8 3.2 3.0 77 1.6 E 11 13 6 7 1028.6 1028.8 0.0
29/10:30pm 7.7 5.2 3.5 75 1.8 SE 6 7 3 4 1029.1 1029.4 0.0
29/10:00pm 8.5 5.4 3.4 70 2.2 SE 9 11 5 6 1028.7 1028.9 0.0
29/09:30pm 8.5 5.9 4.2 74 1.9 SSE 7 9 4 5 1029.2 1029.5 0.0
29/09:00pm 8.8 5.8 4.0 72 2.1 SSE 9 9 5 5 1029.0 1029.3 0.0
29/08:30pm 9.9 7.1 3.3 63 2.9 S 7 9 4 5 1029.3 1029.6 0.0
29/08:00pm 8.8 6.3 4.0 72 2.1 SW 6 7 3 4 1029.5 1029.8 0.0
29/07:30pm 9.4 7.6 3.7 67 2.5 ESE 2 9 1 5 1029.0 1029.3 0.0
29/07:00pm 8.9 7.2 3.9 71 2.2 SSW 2 6 1 3 1029.0 1029.3 0.0
29/06:30pm 11.7 9.1 3.4 56 3.7 SSW 6 7 3 4 1028.8 1029.0 0.0
29/06:00pm 11.4 8.3 3.8 59 3.4 SW 9 11 5 6 1028.9 1029.2 0.0

Other Formats:

Comma delimited format used in spreadsheet applications
http://www.bom.gov.au/fwo/IDN60801/IDN60801.94711.axf

JavaScript Object Notation format (JSON) in row-major order
http://www.bom.gov.au/fwo/IDN60801/IDN60801.94711.json